Crestline, KS (66728)

12:42 PM CST on December 05, 2016 (GMT -0600)
ESE Cherokee Co Kansas | | Change Station

Elev 951 ft 37.15 °N, 94.72 °W | Updated 14 minutes ago

Clear
Clear
49.7 °F
Feels Like 46 °F
N
9.0
Wind Variable Wind from SSE
Gusts 10.0 mph

Today
High -- | Low -- °F
--% Chance of Precip.
Yesterday
High -- | Low -- °F
Precip. -- in
Pressure 29.90 in
Visibility 10.0 miles
Clouds Clear
Windchill 46 °F
Dew Point 39 °F
Humidity 68%
Rainfall 0.00 in
Snow Depth Not available.
7:17 AM 5:01 PM
Waxing Crescent, 34% visible
METAR KJLN 051753Z COR 16008KT 10SM CLR 09/03 A2989 RMK AO2 PRESFR SLP124 I6000 T00890028 10089 21006 58013
Pressure 29.90 in
Visibility 10.0 miles
Clouds Clear
Windchill 46 °F
Dew Point 39 °F
Humidity 68%
Rainfall 0.00 in
Snow Depth Not available.
7:17 AM 5:01 PM
Waxing Crescent, 34% visible
METAR KJLN 051753Z COR 16008KT 10SM CLR 09/03 A2989 RMK AO2 PRESFR SLP124 I6000 T00890028 10089 21006 58013

10-Day Weather Forecast

Almanac

Astronomy

Dec. 05, 2016 Rise Set
Actual Time
Civil Twilight
Nautical Twilight
Astronomical Twilight
Moon
Length of Visible Light
Length of Day
Tomorrow will be .
, % of the Moon is Illuminated

Today's Extremes

State Highs State Lows

Community

WunderPhotos

Upload Photos

1,955,851 photos uploaded!

WunderBlog® & News

Nearby

Air Quality

  Air Quality AQ Index Pollutant
Not available.

Snow Depth

Station Depth Elevation

Earthquake Activity

City Distance Mag. Time & Date
Minimum magnitude displayed is 2.5.

Coastal Water Temperatures

Place Temperature

Stations

Nearby Weather Stations

Station Location Temp. Windchill Dew Point Humidity Wind Precip. Elev Updated Type
                   

Watches & Warnings

There are currently no watches in effect.